createdAt,value
2017-11-11T00:00:04.838Z,3.13
2017-11-11T00:02:05.808Z,2.83
2017-11-11T00:04:06.801Z,2.60
2017-11-11T00:06:07.771Z,2.87
2017-11-11T00:08:08.714Z,3.43
2017-11-11T00:10:09.738Z,3.13
2017-11-11T00:12:10.735Z,3.37
2017-11-11T00:14:11.741Z,3.27
2017-11-11T00:16:12.700Z,3.23
2017-11-11T00:18:13.629Z,3.20
2017-11-11T00:20:14.693Z,3.20
2017-11-11T00:22:15.681Z,3.20
2017-11-11T00:24:16.609Z,3.27
2017-11-11T00:26:17.589Z,4.03
2017-11-11T00:28:19.276Z,3.00
2017-11-11T00:30:20.304Z,2.40
2017-11-11T00:32:21.992Z,2.37
2017-11-11T00:34:22.981Z,2.90
2017-11-11T00:36:24.050Z,3.07
2017-11-11T00:38:25.030Z,2.73
2017-11-11T00:40:26.000Z,2.97
2017-11-11T00:42:27.000Z,2.77
2017-11-11T00:44:28.048Z,2.60
2017-11-11T00:46:29.823Z,2.83
2017-11-11T00:48:30.818Z,3.30
2017-11-11T00:50:31.796Z,2.47
2017-11-11T00:52:33.533Z,3.10
2017-11-11T00:54:34.540Z,3.10
2017-11-11T00:56:35.525Z,3.10
2017-11-11T00:58:36.475Z,2.87
2017-11-11T01:00:37.473Z,2.73
2017-11-11T01:02:38.441Z,3.37
2017-11-11T01:04:39.413Z,3.20
2017-11-11T01:06:40.413Z,3.23
2017-11-11T01:08:41.380Z,3.20
2017-11-11T01:10:42.364Z,2.67
2017-11-11T01:12:44.109Z,2.73
2017-11-11T01:14:45.065Z,2.70
2017-11-11T01:16:46.017Z,3.30
2017-11-11T01:18:47.018Z,3.00
2017-11-11T01:20:48.782Z,3.30
2017-11-11T01:22:49.720Z,2.65
2017-11-11T01:24:50.732Z,3.37
2017-11-11T01:26:51.697Z,2.83
2017-11-11T01:28:53.419Z,2.80
2017-11-11T01:30:54.409Z,2.67
2017-11-11T01:32:55.436Z,3.20
2017-11-11T01:34:57.136Z,2.90
2017-11-11T01:36:58.124Z,3.57
2017-11-11T01:38:59.100Z,3.00
2017-11-11T01:41:00.809Z,3.40
2017-11-11T01:43:01.761Z,2.70
2017-11-11T01:45:02.723Z,3.03
2017-11-11T01:47:03.724Z,3.47
2017-11-11T01:49:04.671Z,2.80
2017-11-11T01:51:05.643Z,3.00
2017-11-11T01:53:06.650Z,2.80
2017-11-11T01:55:08.326Z,2.00
2017-11-11T01:57:09.286Z,2.40
2017-11-11T01:59:10.322Z,2.50
2017-11-11T02:01:11.350Z,2.20
2017-11-11T02:03:13.068Z,2.40
2017-11-11T02:05:14.070Z,2.97
2017-11-11T02:07:15.097Z,3.10
2017-11-11T02:09:16.117Z,2.50
2017-11-11T02:11:17.053Z,2.93
2017-11-11T02:13:18.043Z,2.87
2017-11-11T02:15:19.054Z,2.60
2017-11-11T02:17:20.004Z,2.63
2017-11-11T02:19:20.985Z,2.80
2017-11-11T02:21:23.291Z,2.63
2017-11-11T02:23:24.364Z,3.53
2017-11-11T02:25:25.320Z,3.37
2017-11-11T02:27:26.403Z,2.73
2017-11-11T02:29:27.394Z,3.30
2017-11-11T02:31:28.434Z,2.97
2017-11-11T02:33:29.394Z,3.20
2017-11-11T02:35:31.244Z,3.00
2017-11-11T02:37:32.241Z,2.70
2017-11-11T02:39:33.198Z,3.00
2017-11-11T02:41:34.995Z,3.10
2017-11-11T02:43:35.968Z,2.80
2017-11-11T02:45:36.917Z,2.90
2017-11-11T02:47:37.895Z,2.80
2017-11-11T02:49:38.914Z,2.33
2017-11-11T02:51:39.905Z,3.27
2017-11-11T02:53:41.623Z,2.93
2017-11-11T02:55:42.580Z,4.00
2017-11-11T02:57:43.522Z,3.80
2017-11-11T02:59:44.506Z,4.00
2017-11-11T03:01:45.445Z,3.83
2017-11-11T03:03:46.402Z,3.83
2017-11-11T03:05:48.111Z,4.30
2017-11-11T03:07:49.104Z,4.70
2017-11-11T03:09:50.856Z,4.27
2017-11-11T03:11:52.557Z,3.90
2017-11-11T03:13:53.501Z,5.13
2017-11-11T03:15:54.489Z,4.90
2017-11-11T03:17:56.454Z,4.90
2017-11-11T03:19:57.476Z,4.87
2017-11-11T03:21:58.462Z,4.63
2017-11-11T03:23:59.415Z,5.53
2017-11-11T03:26:00.398Z,4.70
2017-11-11T03:28:01.341Z,5.40
2017-11-11T03:30:02.357Z,5.13
2017-11-11T03:32:04.078Z,4.87
2017-11-11T03:34:05.144Z,5.13
2017-11-11T03:36:06.121Z,5.67
2017-11-11T03:38:07.056Z,4.67
2017-11-11T03:40:08.034Z,5.23
2017-11-11T03:42:09.008Z,5.33
2017-11-11T03:44:10.747Z,5.50
2017-11-11T03:46:12.440Z,5.47
2017-11-11T03:48:13.425Z,5.30
2017-11-11T03:50:14.425Z,5.17
2017-11-11T03:52:15.406Z,4.43
2017-11-11T03:54:16.398Z,4.70
2017-11-11T03:56:17.365Z,4.23
2017-11-11T03:58:18.331Z,4.60
2017-11-11T04:00:19.290Z,4.33
2017-11-11T04:02:20.262Z,4.60
2017-11-11T04:04:21.993Z,4.73
2017-11-11T04:06:23.065Z,4.40
2017-11-11T04:08:24.781Z,4.47
2017-11-11T04:10:26.269Z,4.83
2017-11-11T04:12:27.252Z,4.60
2017-11-11T04:14:28.201Z,5.57
2017-11-11T04:16:29.865Z,4.53
2017-11-11T04:18:30.835Z,5.87
2017-11-11T04:20:31.858Z,4.30
2017-11-11T04:22:32.809Z,4.20
2017-11-11T04:24:33.800Z,4.67
2017-11-11T04:26:34.749Z,5.23
2017-11-11T04:28:35.689Z,4.07
2017-11-11T04:30:36.680Z,4.00
2017-11-11T04:32:37.682Z,4.60
2017-11-11T04:34:38.657Z,4.30
2017-11-11T04:36:39.611Z,3.67
2017-11-11T04:38:40.589Z,4.30
2017-11-11T04:40:41.559Z,3.93
2017-11-11T04:42:42.573Z,3.70
2017-11-11T04:44:43.512Z,4.20
2017-11-11T04:46:44.458Z,4.27
2017-11-11T04:48:45.449Z,3.87
2017-11-11T04:50:46.425Z,3.30
2017-11-11T04:52:47.384Z,3.70
2017-11-11T04:54:48.418Z,3.77
2017-11-11T04:56:49.374Z,3.47
2017-11-11T04:58:50.313Z,3.13
2017-11-11T05:00:52.085Z,3.57
2017-11-11T05:02:53.054Z,3.73
2017-11-11T05:04:54.118Z,2.60
2017-11-11T05:06:55.169Z,3.03
2017-11-11T05:08:56.191Z,2.80
2017-11-11T05:10:57.181Z,3.80
2017-11-11T05:12:58.096Z,4.17
2017-11-11T05:14:59.081Z,4.23
2017-11-11T05:17:00.085Z,4.33
2017-11-11T05:19:01.063Z,5.17
2017-11-11T05:21:02.046Z,4.17
2017-11-11T05:23:03.729Z,5.70
2017-11-11T05:25:04.698Z,4.60
2017-11-11T05:27:05.679Z,4.70
2017-11-11T05:29:06.653Z,6.10
2017-11-11T05:31:07.622Z,5.77
2017-11-11T05:33:08.606Z,5.43
2017-11-11T05:35:09.565Z,5.10
2017-11-11T05:37:10.548Z,5.77
2017-11-11T05:39:11.560Z,5.83
2017-11-11T05:41:12.546Z,5.40
2017-11-11T05:43:13.542Z,5.87
2017-11-11T05:45:14.505Z,6.93
2017-11-11T05:47:15.452Z,6.13
2017-11-11T05:49:16.398Z,7.17
2017-11-11T05:51:18.128Z,6.17
2017-11-11T05:53:19.078Z,6.83
2017-11-11T05:55:20.009Z,7.03
2017-11-11T05:57:21.173Z,8.20
2017-11-11T05:59:22.101Z,7.70
2017-11-11T06:01:23.080Z,7.23
2017-11-11T06:03:24.086Z,7.67
2017-11-11T06:05:25.128Z,8.50
2017-11-11T06:07:26.145Z,8.37
2017-11-11T06:09:27.914Z,7.90
2017-11-11T06:11:29.672Z,8.90
2017-11-11T06:13:31.394Z,8.80
2017-11-11T06:15:32.362Z,8.17
2017-11-11T06:17:33.289Z,7.43
2017-11-11T06:19:34.252Z,7.57
2017-11-11T06:21:35.257Z,8.03
2017-11-11T06:23:36.201Z,8.40
2017-11-11T06:25:37.169Z,7.90
2017-11-11T06:27:38.131Z,7.40
2017-11-11T06:29:39.103Z,8.87
2017-11-11T06:31:40.049Z,9.40
2017-11-11T06:33:41.816Z,7.90
2017-11-11T06:35:43.540Z,8.30
2017-11-11T06:37:44.465Z,7.93
2017-11-11T06:39:45.424Z,9.03
2017-11-11T06:41:46.396Z,8.80
2017-11-11T06:43:47.351Z,8.07
2017-11-11T06:45:48.332Z,8.03
2017-11-11T06:47:49.336Z,6.83
2017-11-11T06:49:50.320Z,7.60
2017-11-11T06:51:51.999Z,8.93
2017-11-11T06:53:53.010Z,9.60
2017-11-11T06:55:53.953Z,7.63
2017-11-11T06:57:55.732Z,9.00
2017-11-11T06:59:57.498Z,8.83
2017-11-11T07:01:58.509Z,8.93
2017-11-11T07:03:59.471Z,9.40
2017-11-11T07:06:00.457Z,9.50
2017-11-11T07:08:01.388Z,8.10
2017-11-11T07:10:03.069Z,8.67
2017-11-11T07:12:04.763Z,8.47
2017-11-11T07:14:05.721Z,9.87
2017-11-11T07:16:06.684Z,9.77
2017-11-11T07:18:07.654Z,9.63
2017-11-11T07:20:08.666Z,8.50
2017-11-11T07:22:09.642Z,8.70
2017-11-11T07:24:10.605Z,9.33
2017-11-11T07:26:11.563Z,8.97
2017-11-11T07:28:12.529Z,9.13
2017-11-11T07:30:13.518Z,9.77
2017-11-11T07:32:14.487Z,10.20
2017-11-11T07:34:15.448Z,9.60
2017-11-11T07:36:16.417Z,11.00
2017-11-11T07:38:17.345Z,9.70
2017-11-11T07:40:18.301Z,10.63
2017-11-11T07:42:19.225Z,8.93
2017-11-11T07:44:20.208Z,7.57
2017-11-11T07:46:21.197Z,9.27
2017-11-11T07:48:22.149Z,8.37
2017-11-11T07:50:23.101Z,8.67
2017-11-11T07:52:24.061Z,7.53
2017-11-11T07:54:25.000Z,7.63
2017-11-11T07:56:25.965Z,8.53
2017-11-11T07:58:26.925Z,8.00
2017-11-11T08:00:27.885Z,8.00
2017-11-11T08:02:28.832Z,6.33
2017-11-11T08:04:29.765Z,7.03
2017-11-11T08:06:30.724Z,6.27
2017-11-11T08:08:31.657Z,6.50
2017-11-11T08:10:32.609Z,7.70
2017-11-11T08:12:33.541Z,8.60
2017-11-11T08:14:34.482Z,7.40
2017-11-11T08:16:35.492Z,5.93
2017-11-11T08:18:36.437Z,7.30
2017-11-11T08:20:37.377Z,7.32
2017-11-11T08:22:38.332Z,7.50
2017-11-11T08:24:39.297Z,7.50
2017-11-11T08:26:40.269Z,6.07
2017-11-11T08:28:41.221Z,6.60
2017-11-11T08:30:42.326Z,6.27
2017-11-11T08:32:43.362Z,6.00
2017-11-11T08:34:44.426Z,7.07
2017-11-11T08:36:45.478Z,6.90
2017-11-11T08:38:46.458Z,5.40
2017-11-11T08:40:47.417Z,5.37
2017-11-11T08:42:48.424Z,5.53
2017-11-11T08:44:49.385Z,6.13
2017-11-11T08:46:50.348Z,6.30
2017-11-11T08:48:51.322Z,4.67
2017-11-11T08:50:53.053Z,5.40
2017-11-11T08:52:54.836Z,5.10
2017-11-11T08:54:55.829Z,4.53
2017-11-11T08:56:56.797Z,3.90
2017-11-11T08:58:59.888Z,4.00
2017-11-11T09:01:02.916Z,5.03
2017-11-11T09:03:04.104Z,4.50
2017-11-11T09:05:05.430Z,3.47
2017-11-11T09:07:07.154Z,3.90
2017-11-11T09:09:08.218Z,3.57
2017-11-11T09:11:15.926Z,4.57
2017-11-11T09:13:16.899Z,3.80
2017-11-11T09:15:18.590Z,4.03
2017-11-11T09:17:19.632Z,3.80
2017-11-11T09:19:20.613Z,4.63
2017-11-11T09:21:21.595Z,4.70
2017-11-11T09:23:23.326Z,4.60
2017-11-11T09:25:24.362Z,5.43
2017-11-11T09:27:25.372Z,5.07
2017-11-11T09:29:26.436Z,5.27
2017-11-11T09:31:27.415Z,5.23
2017-11-11T09:33:28.713Z,5.93
2017-11-11T09:35:29.893Z,6.30
2017-11-11T09:37:32.963Z,6.67
2017-11-11T09:39:33.982Z,5.73
2017-11-11T09:41:35.167Z,6.00
2017-11-11T09:46:00.124Z,5.00
2017-11-11T09:48:01.191Z,4.90
2017-11-11T09:50:02.382Z,6.50
2017-11-11T09:52:03.529Z,7.87
2017-11-11T09:54:04.537Z,6.60
2017-11-11T09:56:05.768Z,6.77
2017-11-11T09:58:06.787Z,7.77
2017-11-11T10:00:07.772Z,8.20
2017-11-11T10:02:08.904Z,9.90
2017-11-11T10:04:11.281Z,9.17
2017-11-11T10:06:12.499Z,9.90
2017-11-11T10:08:15.471Z,9.73
2017-11-11T10:10:16.527Z,10.20
2017-11-11T10:12:17.545Z,11.70
2017-11-11T10:14:34.734Z,12.53
2017-11-11T10:16:35.796Z,14.40
2017-11-11T10:18:37.035Z,13.70
2017-11-11T10:20:38.102Z,14.60
2017-11-11T10:22:39.075Z,13.70
2017-11-11T10:24:40.066Z,15.90
2017-11-11T10:26:42.067Z,17.73
2017-11-11T10:28:43.077Z,18.73
2017-11-11T10:30:44.071Z,21.70
2017-11-11T10:32:45.108Z,19.10
2017-11-11T10:34:46.167Z,21.47
2017-11-11T10:36:47.139Z,22.60
2017-11-11T10:38:48.195Z,23.90
2017-11-11T10:40:49.486Z,19.97
2017-11-11T10:42:50.485Z,18.30
2017-11-11T10:44:55.173Z,7.60
2017-11-11T10:46:56.231Z,7.80
2017-11-11T10:48:57.250Z,7.77
2017-11-11T10:50:58.263Z,5.00
2017-11-11T10:52:59.634Z,4.63
2017-11-11T10:55:00.673Z,5.40
2017-11-11T10:57:01.843Z,6.70
2017-11-11T10:59:02.853Z,5.83
2017-11-11T11:01:03.891Z,6.13
2017-11-11T11:03:04.885Z,7.47
2017-11-11T11:05:06.242Z,8.80
2017-11-11T11:07:07.239Z,10.60
2017-11-11T11:09:08.271Z,11.90
2017-11-11T11:11:09.245Z,13.00
2017-11-11T11:13:10.683Z,14.40
2017-11-11T11:15:11.732Z,17.83
2017-11-11T11:17:12.756Z,19.03
2017-11-11T11:19:13.751Z,18.73
2017-11-11T11:21:15.259Z,20.13
2017-11-11T11:23:16.837Z,19.00
2017-11-11T11:25:19.023Z,16.97
2017-11-11T11:27:20.114Z,15.30
2017-11-11T11:29:21.490Z,17.57
2017-11-11T11:31:22.595Z,12.67
2017-11-11T11:33:23.586Z,14.03
2017-11-11T11:35:25.983Z,10.57
2017-11-11T11:37:27.195Z,7.77
2017-11-11T11:39:28.190Z,6.37
2017-11-11T11:41:29.706Z,5.30
2017-11-11T11:43:31.009Z,5.53
2017-11-11T11:45:32.220Z,6.57
2017-11-11T11:47:34.463Z,6.77
2017-11-11T11:49:36.275Z,6.90
2017-11-11T11:51:37.881Z,7.00
2017-11-11T11:53:44.383Z,7.37
2017-11-11T11:55:45.490Z,6.67
2017-11-11T11:57:46.706Z,6.63
2017-11-11T11:59:47.721Z,6.67
2017-11-11T12:01:48.724Z,5.83
2017-11-11T12:03:54.075Z,6.30
2017-11-11T12:05:55.605Z,6.70
2017-11-11T12:07:56.634Z,5.77
2017-11-11T12:09:57.854Z,4.63
2017-11-11T12:11:59.993Z,3.00
2017-11-11T12:14:01.059Z,2.43
2017-11-11T12:16:02.111Z,2.70
2017-11-11T12:18:03.141Z,2.10
2017-11-11T12:20:04.124Z,2.40
2017-11-11T12:22:05.346Z,2.10
2017-11-11T12:24:06.506Z,1.90
2017-11-11T12:26:07.519Z,1.80
2017-11-11T12:28:09.289Z,2.37
2017-11-11T12:30:11.415Z,1.70
2017-11-11T12:32:12.520Z,2.40
2017-11-11T12:34:13.529Z,1.90
2017-11-11T12:36:14.534Z,2.10
2017-11-11T12:38:15.518Z,2.20
2017-11-11T12:40:16.506Z,2.13
2017-11-11T12:42:17.482Z,2.00
2017-11-11T12:44:18.465Z,2.23
2017-11-11T12:46:19.448Z,1.97
2017-11-11T12:48:20.423Z,2.40
2017-11-11T12:50:21.826Z,2.27
2017-11-11T12:52:22.856Z,2.43
2017-11-11T12:54:23.927Z,3.23
2017-11-11T12:56:24.963Z,2.13
2017-11-11T12:58:26.576Z,1.97
2017-11-11T13:00:27.861Z,2.60
2017-11-11T13:02:29.022Z,2.37
2017-11-11T13:04:30.013Z,2.50
2017-11-11T13:06:30.998Z,2.87
2017-11-11T13:08:34.592Z,1.97
2017-11-11T13:10:35.946Z,1.97
2017-11-11T13:12:36.950Z,2.30
2017-11-11T13:14:39.154Z,2.37
2017-11-11T13:16:40.222Z,2.17
2017-11-11T13:18:41.214Z,2.50
2017-11-11T13:20:43.070Z,1.83
2017-11-11T13:22:44.079Z,1.90
2017-11-11T13:24:45.154Z,2.03
2017-11-11T13:26:46.889Z,2.50
2017-11-11T13:28:47.873Z,2.77
2017-11-11T13:30:49.297Z,3.00
2017-11-11T13:32:50.335Z,2.77
2017-11-11T13:34:51.289Z,2.23
2017-11-11T13:36:52.272Z,2.83
2017-11-11T13:38:53.246Z,2.77
2017-11-11T13:40:54.205Z,3.00
2017-11-11T13:42:55.210Z,2.80
2017-11-11T13:44:56.244Z,2.97
2017-11-11T13:46:57.952Z,3.13
2017-11-11T13:48:58.947Z,2.63
2017-11-11T13:50:59.919Z,3.30
2017-11-11T13:53:00.897Z,2.90
2017-11-11T13:55:01.992Z,2.57
2017-11-11T13:57:03.053Z,2.87
2017-11-11T13:59:04.300Z,2.60
2017-11-11T14:01:05.815Z,2.50
2017-11-11T14:03:07.655Z,2.20
2017-11-11T14:05:08.679Z,2.20
2017-11-11T14:07:09.655Z,2.93
2017-11-11T14:09:11.344Z,2.70
2017-11-11T14:11:12.952Z,3.27
2017-11-11T14:13:13.958Z,3.03
2017-11-11T14:15:15.005Z,3.77
2017-11-11T14:17:16.818Z,3.33
2017-11-11T14:19:17.971Z,3.73
2017-11-11T14:21:19.578Z,3.80
2017-11-11T14:23:21.411Z,3.47
2017-11-11T14:27:59.166Z,4.10
2017-11-11T14:30:02.023Z,4.30
2017-11-11T14:32:03.287Z,4.83
2017-11-11T14:34:12.524Z,4.30
2017-11-11T14:36:33.149Z,3.90
2017-11-11T14:38:34.396Z,4.13
2017-11-11T14:41:01.532Z,4.00
2017-11-11T14:45:30.686Z,3.40
2017-11-11T14:47:31.862Z,3.60
2017-11-11T14:49:33.093Z,3.37
2017-11-11T14:51:59.383Z,2.80
2017-11-11T14:54:06.070Z,3.27
2017-11-11T14:56:09.323Z,3.13
2017-11-11T14:58:19.182Z,3.37
2017-11-11T15:02:26.586Z,3.60
2017-11-11T15:04:27.740Z,3.80
2017-11-11T15:06:28.871Z,3.37
2017-11-11T15:08:29.983Z,3.43
2017-11-11T15:13:15.134Z,3.73
2017-11-11T15:15:16.239Z,3.90
2017-11-11T15:19:55.378Z,3.80
2017-11-11T15:21:56.659Z,3.10
2017-11-11T15:23:59.522Z,3.80
2017-11-11T15:29:02.738Z,3.10
2017-11-11T15:31:03.847Z,3.23
2017-11-11T15:33:04.957Z,3.73
2017-11-11T15:35:07.088Z,3.47
2017-11-11T15:48:59.054Z,3.77
2017-11-11T15:51:00.204Z,3.10
2017-11-11T15:53:01.328Z,3.60
2017-11-11T15:55:02.843Z,3.90
2017-11-11T15:57:03.972Z,4.13
2017-11-11T16:01:33.405Z,4.60
2017-11-11T16:05:58.026Z,4.37
2017-11-11T16:08:05.799Z,4.10
2017-11-11T16:10:06.906Z,4.20
2017-11-11T16:12:08.145Z,4.23
2017-11-11T16:19:12.083Z,4.33
2017-11-11T16:21:13.143Z,4.00
2017-11-11T16:25:42.084Z,5.07
2017-11-11T16:27:44.196Z,4.53
2017-11-11T16:29:45.297Z,4.80
2017-11-11T16:31:46.935Z,4.83
2017-11-11T16:34:11.909Z,5.30
2017-11-11T16:36:41.366Z,4.93
2017-11-11T16:38:42.563Z,4.70
2017-11-11T16:43:14.288Z,5.50
2017-11-11T16:45:15.453Z,6.47
2017-11-11T16:49:39.635Z,6.30
2017-11-11T16:54:12.409Z,5.70
2017-11-11T16:58:42.506Z,6.97
2017-11-11T17:00:47.015Z,6.90
2017-11-11T17:02:48.235Z,7.53
2017-11-11T17:04:50.166Z,6.30
2017-11-11T17:06:52.471Z,6.80
2017-11-11T17:08:53.577Z,6.60
2017-11-11T17:11:07.783Z,7.00
2017-11-11T17:13:14.340Z,6.20
2017-11-11T17:15:15.593Z,7.23
2017-11-11T17:19:54.832Z,6.10
2017-11-11T17:21:56.001Z,6.53
2017-11-11T17:24:03.730Z,7.00
2017-11-11T17:26:04.846Z,6.30
2017-11-11T17:28:05.846Z,6.00
2017-11-11T17:30:08.118Z,6.40
2017-11-11T17:32:09.383Z,5.13
2017-11-11T17:34:10.382Z,6.57
2017-11-11T17:36:11.387Z,6.70
2017-11-11T17:38:13.828Z,7.63
2017-11-11T17:40:14.916Z,6.57
2017-11-11T17:42:16.008Z,6.53
2017-11-11T17:44:18.635Z,6.40
2017-11-11T17:46:19.820Z,6.30
2017-11-11T17:48:20.869Z,5.80
2017-11-11T17:50:25.785Z,7.37
2017-11-11T17:52:28.211Z,6.23
2017-11-11T17:54:31.902Z,5.53
2017-11-11T17:56:33.270Z,6.37
2017-11-11T17:58:34.848Z,5.50
2017-11-11T18:00:36.443Z,5.80
2017-11-11T18:02:37.586Z,6.80
2017-11-11T18:07:16.478Z,5.87
2017-11-11T18:11:25.874Z,6.60
2017-11-11T18:13:26.919Z,6.13
2017-11-11T18:15:30.507Z,7.13
2017-11-11T18:17:31.771Z,7.70
2017-11-11T18:19:33.046Z,6.50
2017-11-11T18:21:34.466Z,6.30
2017-11-11T18:23:35.480Z,6.50
2017-11-11T18:25:38.478Z,7.10
2017-11-11T18:27:39.624Z,6.70
2017-11-11T18:29:41.189Z,6.97
2017-11-11T18:31:42.225Z,5.70
2017-11-11T18:34:04.456Z,6.60
2017-11-11T18:36:05.696Z,6.83
2017-11-11T18:38:06.675Z,6.37
2017-11-11T18:40:09.429Z,7.17
2017-11-11T18:42:10.588Z,6.30
2017-11-11T18:46:38.322Z,6.87
2017-11-11T18:48:58.793Z,6.20
2017-11-11T18:50:59.938Z,6.60
2017-11-11T18:53:01.060Z,5.97
2017-11-11T18:57:17.743Z,6.57
2017-11-11T18:59:18.946Z,5.40
2017-11-11T19:01:19.977Z,6.43
2017-11-11T19:03:22.524Z,6.90
2017-11-11T19:05:23.619Z,5.57
2017-11-11T19:07:24.643Z,5.37
2017-11-11T19:09:25.686Z,5.67
2017-11-11T19:11:26.749Z,6.90
2017-11-11T19:13:28.567Z,5.90
2017-11-11T19:15:30.446Z,6.70
2017-11-11T19:17:31.544Z,7.30
2017-11-11T19:19:32.731Z,7.57
2017-11-11T19:21:36.027Z,7.67
2017-11-11T19:23:37.228Z,8.03
2017-11-11T19:25:38.865Z,7.70
2017-11-11T19:27:39.952Z,8.53
2017-11-11T19:29:41.355Z,9.30
2017-11-11T19:31:45.535Z,9.30
2017-11-11T19:33:58.305Z,8.97
2017-11-11T19:36:00.857Z,9.70
2017-11-11T19:38:01.897Z,9.00
2017-11-11T19:40:04.357Z,9.50
2017-11-11T19:42:05.998Z,10.77
2017-11-11T19:48:24.719Z,10.33
2017-11-11T19:50:25.882Z,10.70
2017-11-11T19:52:32.914Z,10.60
2017-11-11T19:54:35.051Z,11.07
2017-11-11T19:56:36.273Z,10.23
2017-11-11T19:58:37.375Z,11.10
2017-11-11T20:00:38.452Z,9.70
2017-11-11T20:02:39.435Z,11.50
2017-11-11T20:04:40.610Z,11.57
2017-11-11T20:06:41.634Z,12.17
2017-11-11T20:08:42.648Z,11.97
2017-11-11T20:10:43.647Z,11.90
2017-11-11T20:12:44.810Z,11.60
2017-11-11T20:14:45.990Z,11.53
2017-11-11T20:16:47.073Z,10.67
2017-11-11T20:18:53.148Z,10.60
2017-11-11T20:20:54.848Z,11.40
2017-11-11T20:22:56.924Z,11.37
2017-11-11T20:24:57.938Z,11.30
2017-11-11T20:26:58.924Z,12.00
2017-11-11T20:28:59.934Z,11.20
2017-11-11T20:31:08.913Z,10.47
2017-11-11T20:33:09.998Z,11.13
2017-11-11T20:35:11.067Z,10.40
2017-11-11T20:37:19.175Z,10.67
2017-11-11T20:39:20.321Z,10.87
2017-11-11T20:41:21.422Z,9.37
2017-11-11T20:43:27.735Z,12.50
2017-11-11T20:45:29.148Z,10.40
2017-11-11T20:47:30.173Z,9.80
2017-11-11T20:49:31.257Z,10.80
2017-11-11T20:51:32.266Z,12.40
2017-11-11T20:53:34.593Z,11.40
2017-11-11T20:55:37.180Z,11.68
2017-11-11T20:57:42.135Z,10.90
2017-11-11T20:59:44.555Z,9.57
2017-11-11T21:01:45.671Z,10.90
2017-11-11T21:03:46.798Z,9.73
2017-11-11T21:05:48.535Z,10.90
2017-11-11T21:07:49.638Z,9.90
2017-11-11T21:10:00.474Z,9.50
2017-11-11T21:12:02.556Z,10.77
2017-11-11T21:14:03.701Z,9.53
2017-11-11T21:16:04.776Z,8.70
2017-11-11T21:20:43.946Z,9.47
2017-11-11T21:22:44.957Z,9.57
2017-11-11T21:24:45.978Z,10.90
2017-11-11T21:26:47.278Z,10.33
2017-11-11T21:28:48.512Z,11.12
2017-11-11T21:30:49.559Z,10.57
2017-11-11T21:32:50.713Z,9.53
2017-11-11T21:37:19.790Z,9.33
2017-11-11T21:39:20.786Z,9.20
2017-11-11T21:41:22.807Z,9.57
2017-11-11T21:43:31.097Z,9.17
2017-11-11T21:45:32.254Z,9.23
2017-11-11T21:47:36.528Z,9.10
2017-11-11T21:49:37.568Z,9.50
2017-11-11T21:51:38.649Z,8.47
2017-11-11T21:56:17.052Z,7.97
2017-11-11T22:00:29.828Z,10.17
2017-11-11T22:04:37.533Z,8.70
2017-11-11T22:06:38.607Z,9.20
2017-11-11T22:08:44.486Z,9.93
2017-11-11T22:10:45.607Z,9.37
2017-11-11T22:12:54.340Z,10.67
2017-11-11T22:14:57.332Z,9.63
2017-11-11T22:21:42.859Z,10.67
2017-11-11T22:23:43.851Z,9.70
2017-11-11T22:25:45.229Z,10.67
2017-11-11T22:27:48.739Z,9.80
2017-11-11T22:29:49.818Z,11.10
2017-11-11T22:31:50.837Z,11.13
2017-11-11T22:33:51.937Z,11.07
2017-11-11T22:38:07.345Z,10.60
2017-11-11T22:40:08.529Z,11.20
2017-11-11T22:42:09.797Z,11.13
2017-11-11T22:44:10.881Z,11.03
2017-11-11T22:46:13.375Z,11.97
2017-11-11T22:48:15.639Z,11.13
2017-11-11T22:50:16.706Z,10.93
2017-11-11T22:52:17.672Z,11.47
2017-11-11T22:54:21.734Z,9.87
2017-11-11T22:56:23.832Z,11.47
2017-11-11T22:58:25.862Z,10.10
2017-11-11T23:02:54.764Z,12.30
2017-11-11T23:09:35.579Z,11.67
2017-11-11T23:14:17.540Z,9.80
2017-11-11T23:16:18.745Z,10.57
2017-11-11T23:18:19.846Z,12.07
2017-11-11T23:20:21.120Z,11.73
2017-11-11T23:22:22.431Z,11.53
2017-11-11T23:24:23.526Z,12.47
2017-11-11T23:26:25.894Z,11.47
2017-11-11T23:30:38.571Z,11.70
2017-11-11T23:32:39.589Z,10.80
2017-11-11T23:34:41.664Z,12.83
2017-11-11T23:38:50.411Z,11.00
2017-11-11T23:40:55.011Z,11.67
2017-11-11T23:42:56.126Z,12.33
2017-11-11T23:44:57.860Z,11.50
2017-11-11T23:46:59.043Z,11.87
2017-11-11T23:49:00.063Z,11.43
2017-11-11T23:51:01.075Z,11.80
2017-11-11T23:53:02.097Z,12.97
2017-11-11T23:55:03.368Z,12.50
2017-11-11T23:57:14.474Z,11.47
2017-11-11T23:59:19.516Z,12.40
